createdAt,value
2023-03-05T00:01:55.835Z,4.97
2023-03-05T00:04:23.589Z,4.68
2023-03-05T00:06:52.939Z,5.57
2023-03-05T00:09:20.284Z,6.68
2023-03-05T00:11:47.662Z,6.18
2023-03-05T00:14:15.402Z,4.85
2023-03-05T00:16:45.554Z,5.30
2023-03-05T00:19:12.894Z,5.65
2023-03-05T00:21:42.101Z,5.93
2023-03-05T00:24:19.628Z,4.90
2023-03-05T00:26:47.243Z,9.60
2023-03-05T00:29:21.796Z,5.53
2023-03-05T00:31:49.500Z,4.72
2023-03-05T00:34:19.148Z,5.18
2023-03-05T00:36:49.378Z,6.20
2023-03-05T00:39:24.515Z,5.70
2023-03-05T00:41:52.686Z,5.63
2023-03-05T00:44:23.123Z,5.75
2023-03-05T00:46:53.361Z,5.57
2023-03-05T00:49:20.927Z,5.50
2023-03-05T00:51:51.518Z,5.47
2023-03-05T00:54:21.019Z,5.40
2023-03-05T00:56:51.071Z,5.97
2023-03-05T00:59:20.228Z,4.85
2023-03-05T01:01:47.598Z,4.85
2023-03-05T01:04:17.058Z,5.07
2023-03-05T01:06:46.287Z,5.32
2023-03-05T01:09:14.568Z,7.10
2023-03-05T01:11:44.024Z,5.45
2023-03-05T01:14:20.778Z,4.93
2023-03-05T01:16:48.478Z,5.32
2023-03-05T01:19:18.531Z,4.63
2023-03-05T01:21:46.986Z,4.22
2023-03-05T01:24:14.141Z,5.10
2023-03-05T01:26:41.699Z,6.18
2023-03-05T01:29:10.043Z,4.55
2023-03-05T01:31:40.113Z,5.88
2023-03-05T01:34:08.703Z,4.70
2023-03-05T01:36:36.344Z,5.80
2023-03-05T01:39:03.789Z,4.70
2023-03-05T01:41:31.305Z,4.88
2023-03-05T01:43:58.863Z,4.82
2023-03-05T01:46:25.989Z,4.50
2023-03-05T01:48:59.160Z,4.95
2023-03-05T01:51:31.958Z,5.63
2023-03-05T01:54:01.940Z,5.35
2023-03-05T01:56:30.561Z,5.20
2023-03-05T01:59:03.747Z,5.03
2023-03-05T02:01:41.117Z,4.28
2023-03-05T02:04:11.609Z,5.15
2023-03-05T02:06:41.557Z,5.78
2023-03-05T02:09:09.423Z,5.10
2023-03-05T02:11:37.032Z,5.35
2023-03-05T02:14:09.053Z,5.13
2023-03-05T02:16:38.439Z,4.27
2023-03-05T02:19:08.121Z,4.78
2023-03-05T02:21:45.601Z,6.18
2023-03-05T02:24:16.821Z,5.47
2023-03-05T02:26:45.321Z,5.75
2023-03-05T02:29:20.063Z,5.28
2023-03-05T02:31:51.862Z,5.45
2023-03-05T02:34:19.012Z,5.88
2023-03-05T02:36:50.741Z,4.65
2023-03-05T02:39:18.589Z,5.43
2023-03-05T02:41:47.979Z,5.25
2023-03-05T02:44:15.358Z,5.75
2023-03-05T02:46:44.986Z,5.07
2023-03-05T02:49:12.211Z,4.57
2023-03-05T02:51:39.462Z,5.07
2023-03-05T02:54:07.669Z,4.88
2023-03-05T02:56:35.544Z,5.55
2023-03-05T02:59:02.635Z,4.95
2023-03-05T03:01:32.414Z,5.65
2023-03-05T03:04:01.263Z,6.03
2023-03-05T03:06:33.967Z,5.60
2023-03-05T03:09:04.932Z,4.93
2023-03-05T03:11:32.065Z,4.45
2023-03-05T03:14:02.753Z,5.30
2023-03-05T03:16:30.713Z,4.82
2023-03-05T03:18:57.844Z,4.25
2023-03-05T03:21:27.752Z,5.07
2023-03-05T03:23:55.172Z,4.90
2023-03-05T03:26:25.519Z,6.38
2023-03-05T03:28:52.689Z,5.60
2023-03-05T03:31:20.243Z,5.03
2023-03-05T03:33:50.653Z,5.10
2023-03-05T03:36:17.816Z,5.00
2023-03-05T03:38:45.274Z,5.85
2023-03-05T03:41:12.411Z,4.97
2023-03-05T03:43:39.900Z,4.32
2023-03-05T03:46:08.460Z,5.00
2023-03-05T03:48:36.093Z,5.15
2023-03-05T03:51:07.414Z,4.63
2023-03-05T03:53:35.064Z,4.90
2023-03-05T03:56:03.448Z,5.15
2023-03-05T03:58:30.687Z,4.97
2023-03-05T04:00:58.233Z,4.20
2023-03-05T04:03:27.651Z,5.38
2023-03-05T04:05:55.529Z,5.20
2023-03-05T04:08:22.812Z,4.47
2023-03-05T04:10:51.023Z,4.85
2023-03-05T04:13:18.225Z,4.80
2023-03-05T04:15:48.333Z,4.40
2023-03-05T04:18:15.553Z,6.45
2023-03-05T04:20:45.846Z,5.60
2023-03-05T04:23:13.461Z,4.20
2023-03-05T04:25:40.718Z,4.60
2023-03-05T04:28:09.977Z,4.32
2023-03-05T04:30:37.169Z,5.05
2023-03-05T04:33:04.387Z,4.60
2023-03-05T04:35:32.033Z,4.53
2023-03-05T04:37:59.537Z,4.47
2023-03-05T04:40:26.705Z,4.75
2023-03-05T04:42:54.856Z,5.25
2023-03-05T04:45:22.325Z,4.43
2023-03-05T04:47:51.692Z,4.40
2023-03-05T04:50:19.210Z,4.65
2023-03-05T04:52:52.890Z,4.53
2023-03-05T04:55:20.028Z,4.90
2023-03-05T04:57:49.719Z,4.18
2023-03-05T05:00:17.571Z,4.72
2023-03-05T05:02:47.424Z,4.22
2023-03-05T05:05:18.105Z,5.13
2023-03-05T05:07:48.130Z,5.18
2023-03-05T05:10:17.195Z,4.63
2023-03-05T05:12:46.777Z,4.20
2023-03-05T05:15:14.669Z,4.85
2023-03-05T05:17:41.836Z,4.18
2023-03-05T05:20:11.559Z,4.50
2023-03-05T05:22:39.142Z,4.60
2023-03-05T05:25:06.476Z,4.35
2023-03-05T05:27:33.756Z,4.60
2023-03-05T05:30:01.309Z,4.47
2023-03-05T05:32:28.680Z,4.55
2023-03-05T05:34:58.515Z,4.20
2023-03-05T05:37:26.712Z,3.97
2023-03-05T05:39:54.169Z,4.63
2023-03-05T05:42:23.887Z,4.22
2023-03-05T05:44:51.371Z,6.45
2023-03-05T05:47:21.793Z,4.32
2023-03-05T05:49:49.114Z,4.30
2023-03-05T05:52:19.580Z,4.15
2023-03-05T05:54:46.751Z,4.63
2023-03-05T05:57:18.916Z,7.10
2023-03-05T05:59:46.202Z,4.60
2023-03-05T06:02:14.577Z,4.40
2023-03-05T06:04:43.764Z,4.50
2023-03-05T06:07:10.943Z,5.07
2023-03-05T06:09:42.384Z,7.70
2023-03-05T06:12:12.518Z,4.70
2023-03-05T06:14:39.741Z,3.80
2023-03-05T06:17:11.153Z,4.45
2023-03-05T06:19:38.675Z,4.68
2023-03-05T06:22:06.173Z,4.43
2023-03-05T06:24:33.312Z,3.80
2023-03-05T06:27:06.189Z,3.80
2023-03-05T06:29:33.450Z,4.13
2023-03-05T06:32:00.789Z,4.45
2023-03-05T06:34:30.227Z,4.38
2023-03-05T06:36:57.513Z,3.90
2023-03-05T06:39:24.880Z,13.30
2023-03-05T06:41:52.262Z,3.90
2023-03-05T06:44:19.645Z,4.97
2023-03-05T06:46:49.075Z,5.78
2023-03-05T06:49:16.253Z,3.90
2023-03-05T06:51:43.671Z,4.75
2023-03-05T06:54:16.196Z,4.55
2023-03-05T06:56:45.635Z,4.47
2023-03-05T06:59:15.431Z,5.10
2023-03-05T07:01:44.008Z,4.60
2023-03-05T07:04:12.663Z,4.28
2023-03-05T07:06:42.230Z,5.03
2023-03-05T07:09:13.853Z,6.53
2023-03-05T07:11:41.007Z,4.60
2023-03-05T07:14:08.521Z,4.38
2023-03-05T07:16:35.987Z,4.78
2023-03-05T07:19:06.407Z,7.88
2023-03-05T07:21:37.538Z,4.13
2023-03-05T07:24:08.881Z,4.53
2023-03-05T07:26:43.888Z,4.60
2023-03-05T07:29:18.395Z,7.18
2023-03-05T07:31:46.029Z,5.00
2023-03-05T07:34:13.820Z,5.97
2023-03-05T07:36:42.353Z,8.13
2023-03-05T07:39:11.488Z,9.85
2023-03-05T07:41:39.027Z,9.45
2023-03-05T07:44:06.379Z,14.10
2023-03-05T07:46:36.275Z,5.55
2023-03-05T07:49:05.947Z,6.55
2023-03-05T07:51:33.432Z,16.73
2023-03-05T07:54:03.779Z,8.52
2023-03-05T07:56:35.200Z,11.38
2023-03-05T07:59:06.790Z,8.20
2023-03-05T08:01:39.868Z,14.02
2023-03-05T08:04:08.489Z,9.75
2023-03-05T08:06:39.465Z,8.68
2023-03-05T08:09:09.089Z,9.73
2023-03-05T08:11:40.238Z,9.48
2023-03-05T08:14:07.692Z,13.20
2023-03-05T08:16:35.454Z,6.13
2023-03-05T08:19:06.863Z,8.18
2023-03-05T08:21:36.049Z,6.88
2023-03-05T08:24:05.916Z,11.10
2023-03-05T08:26:38.355Z,6.53
2023-03-05T08:29:07.011Z,8.27
2023-03-05T08:31:35.299Z,8.88
2023-03-05T08:34:03.795Z,14.68
2023-03-05T08:36:33.402Z,8.48
2023-03-05T08:39:00.844Z,11.80
2023-03-05T08:41:28.581Z,9.32
2023-03-05T08:43:55.915Z,9.05
2023-03-05T08:46:23.248Z,9.30
2023-03-05T08:48:51.373Z,8.38
2023-03-05T08:51:25.781Z,9.40
2023-03-05T08:53:55.205Z,8.80
2023-03-05T08:56:26.151Z,9.10
2023-03-05T08:58:53.874Z,10.00
2023-03-05T09:01:21.111Z,11.23
2023-03-05T09:03:48.858Z,8.07
2023-03-05T09:06:18.425Z,9.82
2023-03-05T09:08:48.128Z,8.68
2023-03-05T09:11:15.483Z,8.82
2023-03-05T09:13:43.125Z,10.68
2023-03-05T09:16:18.071Z,11.65
2023-03-05T09:18:45.663Z,10.38
2023-03-05T09:21:15.925Z,7.97
2023-03-05T09:23:44.287Z,10.00
2023-03-05T09:26:13.298Z,9.32
2023-03-05T09:28:43.668Z,10.55
2023-03-05T09:31:11.369Z,8.88
2023-03-05T09:33:39.302Z,11.90
2023-03-05T09:36:28.869Z,10.05
2023-03-05T09:38:56.359Z,12.00
2023-03-05T09:41:37.197Z,12.55
2023-03-05T09:44:42.089Z,9.52
2023-03-05T09:47:43.537Z,9.55
2023-03-05T09:50:23.544Z,10.55
2023-03-05T09:52:57.329Z,11.07
2023-03-05T09:55:40.554Z,10.43
2023-03-05T09:58:25.293Z,11.75
2023-03-05T10:01:00.465Z,8.90
2023-03-05T10:03:36.462Z,8.77
2023-03-05T10:06:15.543Z,11.40
2023-03-05T10:09:24.280Z,9.52
2023-03-05T10:12:01.181Z,8.27
2023-03-05T10:14:32.009Z,8.77
2023-03-05T10:19:56.096Z,11.20
2023-03-05T10:22:28.631Z,10.57
2023-03-05T10:25:22.753Z,8.95
2023-03-05T10:28:00.790Z,10.40
2023-03-05T10:30:46.771Z,11.40
2023-03-05T10:33:23.168Z,9.38
2023-03-05T10:36:22.697Z,9.40
2023-03-05T10:39:22.460Z,12.30
2023-03-05T10:42:06.191Z,10.23
2023-03-05T10:44:48.080Z,9.85
2023-03-05T10:47:30.225Z,12.10
2023-03-05T10:49:59.148Z,8.50
2023-03-05T10:52:39.700Z,8.68
2023-03-05T10:55:19.682Z,7.70
2023-03-05T10:57:47.366Z,9.07
2023-03-05T11:00:30.167Z,7.97
2023-03-05T11:03:03.237Z,7.77
2023-03-05T11:08:31.083Z,8.00
2023-03-05T11:11:18.371Z,7.85
2023-03-05T11:13:54.982Z,10.23
2023-03-05T11:16:32.717Z,8.75
2023-03-05T11:19:19.776Z,7.47
2023-03-05T11:22:10.953Z,6.97
2023-03-05T11:24:38.268Z,7.10
2023-03-05T11:27:31.528Z,10.93
2023-03-05T11:29:59.337Z,9.77
2023-03-05T11:32:29.310Z,8.48
2023-03-05T11:34:57.517Z,11.68
2023-03-05T11:37:30.884Z,11.30
2023-03-05T11:42:54.108Z,13.60
2023-03-05T11:45:23.159Z,12.68
2023-03-05T11:47:53.337Z,9.77
2023-03-05T11:50:28.650Z,13.93
2023-03-05T11:53:09.843Z,12.25
2023-03-05T11:56:19.132Z,16.05
2023-03-05T11:59:14.682Z,13.77
2023-03-05T12:01:48.065Z,14.20
2023-03-05T12:04:16.484Z,19.35
2023-03-05T12:06:57.876Z,12.48
2023-03-05T12:09:43.041Z,10.93
2023-03-05T12:12:37.688Z,13.07
2023-03-05T12:15:17.459Z,21.20
2023-03-05T12:17:59.015Z,13.52
2023-03-05T12:21:08.505Z,14.23
2023-03-05T12:23:59.298Z,14.88
2023-03-05T12:27:03.789Z,13.25
2023-03-05T12:29:57.208Z,12.07
2023-03-05T12:32:34.086Z,13.73
2023-03-05T12:35:05.649Z,16.27
2023-03-05T12:37:33.018Z,12.90
2023-03-05T12:40:04.338Z,15.82
2023-03-05T12:42:32.337Z,14.00
2023-03-05T12:45:19.757Z,15.73
2023-03-05T12:48:12.416Z,15.50
2023-03-05T12:50:40.522Z,14.73
2023-03-05T12:53:17.033Z,12.55
2023-03-05T12:55:47.220Z,14.52
2023-03-05T12:58:33.304Z,15.23
2023-03-05T13:01:27.934Z,13.98
2023-03-05T13:03:57.794Z,13.02
2023-03-05T13:06:35.336Z,11.13
2023-03-05T13:09:27.434Z,11.93
2023-03-05T13:11:56.174Z,11.40
2023-03-05T13:14:43.834Z,9.95
2023-03-05T13:17:30.738Z,19.25
2023-03-05T13:19:59.441Z,14.80
2023-03-05T13:22:26.915Z,16.83
2023-03-05T13:25:17.062Z,13.98
2023-03-05T13:27:44.437Z,11.18
2023-03-05T13:30:27.888Z,15.13
2023-03-05T13:33:02.959Z,15.90
2023-03-05T13:35:33.989Z,26.67
2023-03-05T13:38:02.158Z,14.02
2023-03-05T13:40:33.881Z,13.45
2023-03-05T13:43:20.626Z,15.35
2023-03-05T13:45:56.539Z,14.80
2023-03-05T13:48:25.472Z,12.63
2023-03-05T13:50:58.557Z,13.82
2023-03-05T13:55:58.845Z,11.30
2023-03-05T13:58:53.569Z,10.77
2023-03-05T14:01:44.085Z,11.30
2023-03-05T14:04:15.613Z,9.63
2023-03-05T14:06:49.304Z,13.02
2023-03-05T14:09:24.122Z,11.25
2023-03-05T14:12:19.286Z,10.00
2023-03-05T14:14:47.474Z,8.63
2023-03-05T14:17:43.273Z,9.55
2023-03-05T14:20:13.456Z,9.55
2023-03-05T14:22:43.385Z,8.55
2023-03-05T14:25:42.439Z,8.50
2023-03-05T14:28:18.818Z,8.45
2023-03-05T14:30:52.483Z,9.85
2023-03-05T14:33:33.894Z,9.07
2023-03-05T14:36:03.044Z,7.80
2023-03-05T14:38:34.103Z,11.13
2023-03-05T14:41:39.271Z,10.15
2023-03-05T14:44:16.085Z,11.10
2023-03-05T14:46:44.199Z,10.00
2023-03-05T14:49:12.097Z,9.88
2023-03-05T14:51:42.654Z,8.82
2023-03-05T14:54:26.915Z,8.57
2023-03-05T14:56:54.273Z,9.18
2023-03-05T14:59:21.793Z,7.72
2023-03-05T15:01:51.732Z,8.18
2023-03-05T15:04:19.827Z,6.75
2023-03-05T15:06:50.868Z,10.15
2023-03-05T15:09:20.972Z,7.82
2023-03-05T15:11:48.553Z,7.05
2023-03-05T15:14:15.978Z,9.85
2023-03-05T15:16:48.840Z,9.07
2023-03-05T15:19:17.000Z,9.00
2023-03-05T15:21:44.482Z,9.15
2023-03-05T15:24:14.741Z,12.02
2023-03-05T15:26:44.320Z,6.78
2023-03-05T15:29:11.494Z,7.32
2023-03-05T15:31:41.377Z,7.82
2023-03-05T15:34:12.155Z,10.63
2023-03-05T15:36:39.298Z,9.63
2023-03-05T15:39:07.179Z,8.98
2023-03-05T15:41:34.384Z,8.05
2023-03-05T15:44:03.904Z,8.30
2023-03-05T15:46:32.527Z,16.38
2023-03-05T15:48:59.986Z,8.18
2023-03-05T15:51:27.468Z,8.48
2023-03-05T15:53:54.736Z,6.80
2023-03-05T15:56:22.075Z,7.78
2023-03-05T15:58:51.760Z,8.02
2023-03-05T16:01:20.620Z,8.57
2023-03-05T16:03:47.940Z,7.55
2023-03-05T16:06:22.313Z,10.13
2023-03-05T16:08:52.451Z,7.32
2023-03-05T16:11:20.236Z,7.32
2023-03-05T16:13:47.903Z,7.85
2023-03-05T16:16:18.318Z,7.32
2023-03-05T16:18:48.102Z,9.70
2023-03-05T16:21:20.845Z,9.05
2023-03-05T16:23:49.822Z,7.82
2023-03-05T16:26:17.209Z,7.65
2023-03-05T16:28:44.964Z,8.88
2023-03-05T16:31:12.578Z,7.35
2023-03-05T16:33:39.932Z,7.90
2023-03-05T16:36:24.711Z,8.65
2023-03-05T16:38:54.523Z,8.48
2023-03-05T16:41:24.372Z,7.88
2023-03-05T16:43:53.524Z,6.57
2023-03-05T16:46:20.844Z,9.43
2023-03-05T16:48:48.199Z,10.27
2023-03-05T16:51:15.429Z,7.65
2023-03-05T16:53:42.822Z,8.13
2023-03-05T16:56:10.932Z,9.45
2023-03-05T16:58:40.621Z,8.98
2023-03-05T17:01:17.761Z,8.75
2023-03-05T17:03:50.604Z,7.50
2023-03-05T17:06:21.723Z,8.02
2023-03-05T17:08:50.031Z,6.90
2023-03-05T17:11:18.763Z,8.90
2023-03-05T17:13:48.792Z,8.15
2023-03-05T17:16:23.644Z,7.75
2023-03-05T17:18:51.692Z,8.70
2023-03-05T17:21:19.034Z,8.35
2023-03-05T17:23:46.315Z,7.32
2023-03-05T17:26:17.844Z,9.40
2023-03-05T17:28:47.577Z,8.25
2023-03-05T17:31:15.195Z,7.32
2023-03-05T17:33:42.543Z,7.07
2023-03-05T17:36:15.314Z,8.32
2023-03-05T17:38:47.556Z,8.15
2023-03-05T17:41:15.838Z,7.72
2023-03-05T17:43:43.290Z,7.90
2023-03-05T17:46:13.414Z,8.05
2023-03-05T17:48:41.634Z,7.72
2023-03-05T17:51:12.484Z,9.80
2023-03-05T17:53:40.400Z,8.30
2023-03-05T17:56:12.406Z,8.75
2023-03-05T17:58:40.439Z,8.98
2023-03-05T18:01:08.369Z,8.05
2023-03-05T18:03:39.358Z,8.18
2023-03-05T18:06:06.785Z,9.38
2023-03-05T18:08:34.158Z,6.82
2023-03-05T18:11:08.916Z,9.73
2023-03-05T18:13:37.516Z,8.40
2023-03-05T18:16:11.082Z,8.23
2023-03-05T18:18:38.869Z,8.05
2023-03-05T18:21:07.874Z,7.78
2023-03-05T18:23:43.036Z,8.17
2023-03-05T18:26:12.729Z,8.18
2023-03-05T18:28:50.048Z,6.18
2023-03-05T18:31:19.208Z,8.23
2023-03-05T18:33:47.640Z,7.78
2023-03-05T18:36:15.076Z,8.07
2023-03-05T18:38:44.349Z,10.75
2023-03-05T18:41:21.003Z,9.30
2023-03-05T18:43:48.753Z,6.32
2023-03-05T18:46:17.266Z,5.32
2023-03-05T18:48:44.572Z,7.07
2023-03-05T18:51:21.553Z,6.80
2023-03-05T18:53:50.163Z,7.07
2023-03-05T18:56:17.538Z,6.65
2023-03-05T18:58:45.364Z,5.85
2023-03-05T19:01:12.641Z,6.65
2023-03-05T19:03:42.063Z,6.88
2023-03-05T19:06:09.713Z,6.40
2023-03-05T19:08:37.072Z,8.65
2023-03-05T19:11:14.489Z,7.15
2023-03-05T19:13:48.828Z,10.65
2023-03-05T19:16:26.567Z,6.95
2023-03-05T19:19:16.418Z,10.50
2023-03-05T19:21:46.395Z,6.65
2023-03-05T19:24:14.630Z,13.73
2023-03-05T19:26:42.945Z,10.70
2023-03-05T19:29:12.756Z,9.73
2023-03-05T19:31:41.543Z,11.93
2023-03-05T19:34:08.768Z,9.43
2023-03-05T19:36:38.269Z,13.10
2023-03-05T19:39:07.386Z,8.63
2023-03-05T19:41:39.849Z,10.80
2023-03-05T19:44:09.516Z,9.77
2023-03-05T19:46:36.900Z,11.85
2023-03-05T19:49:04.506Z,8.48
2023-03-05T19:51:32.051Z,9.70
2023-03-05T19:53:59.702Z,8.00
2023-03-05T19:56:26.931Z,8.75
2023-03-05T19:58:54.141Z,10.18
2023-03-05T20:01:26.961Z,8.73
2023-03-05T20:03:58.442Z,8.40
2023-03-05T20:06:29.994Z,9.80
2023-03-05T20:08:58.622Z,10.10
2023-03-05T20:11:26.558Z,9.30
2023-03-05T20:13:58.561Z,7.60
2023-03-05T20:16:29.659Z,8.40
2023-03-05T20:18:58.518Z,8.75
2023-03-05T20:21:29.272Z,7.63
2023-03-05T20:24:03.423Z,9.63
2023-03-05T20:26:32.989Z,7.78
2023-03-05T20:29:04.728Z,8.02
2023-03-05T20:31:35.270Z,7.38
2023-03-05T20:34:09.518Z,6.63
2023-03-05T20:36:37.618Z,8.23
2023-03-05T20:39:08.939Z,8.48
2023-03-05T20:41:38.614Z,10.98
2023-03-05T20:44:07.971Z,11.57
2023-03-05T20:46:51.954Z,10.27
2023-03-05T20:49:21.340Z,10.82
2023-03-05T20:51:51.124Z,11.60
2023-03-05T20:54:18.560Z,10.02
2023-03-05T20:56:48.054Z,10.07
2023-03-05T20:59:16.846Z,9.77
2023-03-05T21:01:46.030Z,11.48
2023-03-05T21:04:13.303Z,9.65
2023-03-05T21:06:43.180Z,8.70
2023-03-05T21:09:10.371Z,9.98
2023-03-05T21:11:39.850Z,10.35
2023-03-05T21:14:07.302Z,10.55
2023-03-05T21:16:34.469Z,9.77
2023-03-05T21:19:02.578Z,9.77
2023-03-05T21:21:30.317Z,11.73
2023-03-05T21:23:57.551Z,11.23
2023-03-05T21:26:24.901Z,10.75
2023-03-05T21:28:52.213Z,10.85
2023-03-05T21:31:22.627Z,10.25
2023-03-05T21:33:49.971Z,9.23
2023-03-05T21:36:18.807Z,10.32
2023-03-05T21:38:47.420Z,9.25
2023-03-05T21:41:14.933Z,9.02
2023-03-05T21:43:42.726Z,11.20
2023-03-05T21:46:12.516Z,8.15
2023-03-05T21:48:39.888Z,9.80
2023-03-05T21:51:12.570Z,9.85
2023-03-05T21:53:42.887Z,9.90
2023-03-05T21:56:22.389Z,10.32
2023-03-05T21:58:50.599Z,11.65
2023-03-05T22:01:20.929Z,9.98
2023-03-05T22:03:51.977Z,12.90
2023-03-05T22:06:21.618Z,8.93
2023-03-05T22:08:48.956Z,11.20
2023-03-05T22:11:17.736Z,10.65
2023-03-05T22:13:45.698Z,9.75
2023-03-05T22:16:22.326Z,9.93
2023-03-05T22:18:52.155Z,10.52
2023-03-05T22:21:26.502Z,11.57
2023-03-05T22:23:57.019Z,9.35
2023-03-05T22:26:26.197Z,8.60
2023-03-05T22:28:54.027Z,10.90
2023-03-05T22:31:28.196Z,10.15
2023-03-05T22:33:55.367Z,9.48
2023-03-05T22:36:23.356Z,9.77
2023-03-05T22:38:51.250Z,10.25
2023-03-05T22:41:19.926Z,9.07
2023-03-05T22:43:49.259Z,9.43
2023-03-05T22:46:27.500Z,10.20
2023-03-05T22:48:54.750Z,10.30
2023-03-05T22:51:22.158Z,10.10
2023-03-05T22:53:49.576Z,8.80
2023-03-05T22:56:18.961Z,11.95
2023-03-05T22:58:47.396Z,8.82
2023-03-05T23:01:17.493Z,8.52
2023-03-05T23:03:53.412Z,9.75
2023-03-05T23:06:21.196Z,8.05
2023-03-05T23:08:48.301Z,9.75
2023-03-05T23:11:17.979Z,8.10
2023-03-05T23:13:48.980Z,9.20
2023-03-05T23:16:18.576Z,9.52
2023-03-05T23:18:46.022Z,10.23
2023-03-05T23:21:13.431Z,9.40
2023-03-05T23:23:40.602Z,8.95
2023-03-05T23:26:07.963Z,9.60
2023-03-05T23:28:35.186Z,9.95
2023-03-05T23:31:04.749Z,8.18
2023-03-05T23:33:34.895Z,8.88
2023-03-05T23:36:02.382Z,8.48
2023-03-05T23:38:30.465Z,8.68
2023-03-05T23:41:01.427Z,8.18
2023-03-05T23:43:30.220Z,8.10
2023-03-05T23:45:57.570Z,8.93
2023-03-05T23:48:26.593Z,8.88
2023-03-05T23:50:54.942Z,8.00
2023-03-05T23:53:25.178Z,10.57
2023-03-05T23:55:53.040Z,8.75
2023-03-05T23:58:23.024Z,9.00
